Time;durP1;ratioP1;P1;durP2;ratioP2;P2;SDS_P1;SDS_P2;PMS_P1;PMS_P2;Temp;Humidity;BMP_temperature;BMP_pressure;BME280_temperature;BME280_humidity;BME280_pressure;Samples;Min_cycle;Max_cycle;Signal;HPM_P1;HPM_P2
2021/12/25 00:00:07;;;;;;;;;;;2.70;99.90;;;;;;5111682;28;19919;-54
2021/12/25 00:02:35;;;;;;;;;;;2.70;99.90;;;;;;5112264;28;19924;-55
2021/12/25 00:05:03;;;;;;;;;;;2.70;99.90;;;;;;5108695;28;19924;-55
2021/12/25 00:07:30;;;;;;;;;;;2.70;99.90;;;;;;5108619;28;20294;-55
2021/12/25 00:09:58;;;;;;;;;;;2.70;99.90;;;;;;5112712;28;20321;-54
2021/12/25 00:12:24;;;;;;;;;;;2.70;99.90;;;;;;5107088;28;19969;-55
2021/12/25 00:14:52;;;;;;;;;;;2.60;99.90;;;;;;5114570;28;19923;-54
2021/12/25 00:17:19;;;;;;;;;;;2.70;99.90;;;;;;5108493;28;19940;-56
2021/12/25 00:19:46;;;;;;;;;;;2.60;99.90;;;;;;5115160;28;20267;-55
2021/12/25 00:22:13;;;;;;;;;;;2.60;99.90;;;;;;5106501;28;19942;-54
2021/12/25 00:24:43;;;;;;;;;;;2.60;99.90;;;;;;5114994;28;19926;-56
2021/12/25 00:27:36;;;;;;;;;;;2.60;99.90;;;;;;5107565;28;20342;-53
2021/12/25 00:32:46;;;;;;;;;;;2.60;99.90;;;;;;5108378;28;19924;-53
2021/12/25 00:35:13;;;;;;;;;;;2.60;99.90;;;;;;5111711;28;19919;-56
2021/12/25 00:37:40;;;;;;;;;;;2.50;99.90;;;;;;5112441;28;20022;-56
2021/12/25 00:40:07;;;;;;;;;;;2.50;99.90;;;;;;5087193;28;20342;-55
2021/12/25 00:42:34;;;;;;;;;;;2.50;99.90;;;;;;5111728;28;20326;-54
2021/12/25 00:45:01;;;;;;;;;;;2.50;99.90;;;;;;5105828;28;20364;-55
2021/12/25 00:47:29;;;;;;;;;;;2.40;99.90;;;;;;5110935;28;20288;-58
2021/12/25 00:49:55;;;;;;;;;;;2.40;99.90;;;;;;5095595;28;20295;-53
2021/12/25 00:52:22;;;;;;;;;;;2.40;99.90;;;;;;5092049;28;19953;-55
2021/12/25 00:54:49;;;;;;;;;;;2.50;99.90;;;;;;5095965;28;19926;-57
2021/12/25 00:57:16;;;;;;;;;;;2.50;99.90;;;;;;5093476;28;20383;-57
2021/12/25 00:59:43;;;;;;;;;;;2.50;99.90;;;;;;5113531;28;20481;-56
2021/12/25 01:02:09;;;;;;;;;;;2.60;99.90;;;;;;5107820;28;19920;-54
2021/12/25 01:04:36;;;;;;;;;;;2.60;99.90;;;;;;5107461;28;19927;-53
2021/12/25 01:07:03;;;;;;;;;;;2.60;99.90;;;;;;5091621;28;19989;-56
2021/12/25 01:09:31;;;;;;;;;;;2.60;99.90;;;;;;5108209;28;19927;-54
2021/12/25 01:12:00;;;;;;;;;;;2.60;99.90;;;;;;5089096;28;19920;-56
2021/12/25 01:14:36;;;;;;;;;;;2.50;99.90;;;;;;5095934;28;19924;-55
2021/12/25 01:18:04;;;;;;;;;;;2.50;99.90;;;;;;5093029;28;19947;-55
2021/12/25 01:20:46;;;;;;;;;;;2.50;99.90;;;;;;5098870;28;19981;-55
2021/12/25 01:31:34;;;;;;;;;;;2.50;99.90;;;;;;5085382;28;19943;-56
2021/12/25 01:48:45;;;;;;;;;;;2.30;99.90;;;;;;5108917;28;19919;-55
2021/12/25 01:51:12;;;;;;;;;;;2.20;99.90;;;;;;5101150;28;19923;-55
2021/12/25 01:53:39;;;;;;;;;;;2.30;99.90;;;;;;5113764;28;19920;-56
2021/12/25 01:56:06;;;;;;;;;;;2.40;99.90;;;;;;5085164;28;19982;-54
2021/12/25 01:58:34;;;;;;;;;;;2.40;99.90;;;;;;5095038;28;19920;-54
2021/12/25 02:01:03;;;;;;;;;;;2.30;99.90;;;;;;5084963;28;19920;-55
2021/12/25 02:03:30;;;;;;;;;;;2.40;99.90;;;;;;5089536;28;19920;-54
2021/12/25 02:05:58;;;;;;;;;;;2.40;99.90;;;;;;5082306;28;19920;-56
2021/12/25 02:08:31;;;;;;;;;;;2.30;99.90;;;;;;5108046;28;19919;-54
2021/12/25 02:10:58;;;;;;;;;;;2.40;99.90;;;;;;5082781;28;19924;-57
2021/12/25 02:13:25;;;;;;;;;;;2.40;99.90;;;;;;5086186;28;19920;-56
2021/12/25 02:15:54;;;;;;;;;;;2.30;99.90;;;;;;5089529;28;19966;-55
2021/12/25 02:18:29;;;;;;;;;;;2.30;99.90;;;;;;5089617;28;19920;-55
2021/12/25 02:23:36;;;;;;;;;;;2.40;99.90;;;;;;5095185;28;19919;-56
2021/12/25 02:26:03;;;;;;;;;;;2.40;99.90;;;;;;5094831;28;20433;-57
2021/12/25 02:28:30;;;;;;;;;;;2.30;99.90;;;;;;5088631;28;20308;-56
2021/12/25 02:30:59;;;;;;;;;;;2.40;99.90;;;;;;5093439;28;20016;-53
2021/12/25 02:33:27;;;;;;;;;;;2.40;99.90;;;;;;5094123;28;20312;-55
2021/12/25 02:35:54;;;;;;;;;;;2.50;99.90;;;;;;5112763;28;20287;-54
2021/12/25 02:38:22;;;;;;;;;;;2.50;99.90;;;;;;5094719;28;19926;-54
2021/12/25 02:40:50;;;;;;;;;;;2.50;99.90;;;;;;5113029;28;19930;-57
2021/12/25 02:43:19;;;;;;;;;;;2.50;99.90;;;;;;5094752;28;19931;-56
2021/12/25 02:45:46;;;;;;;;;;;2.50;99.90;;;;;;5094209;28;20323;-54
2021/12/25 02:48:16;;;;;;;;;;;2.50;99.90;;;;;;5094542;28;19926;-56
2021/12/25 02:50:44;;;;;;;;;;;2.60;99.90;;;;;;5094692;28;19955;-55
2021/12/25 02:53:11;;;;;;;;;;;2.50;99.90;;;;;;5112848;28;19925;-56
2021/12/25 02:55:39;;;;;;;;;;;2.50;99.90;;;;;;5094172;28;19965;-55
2021/12/25 02:58:06;;;;;;;;;;;2.50;99.90;;;;;;5094510;28;19921;-55
2021/12/25 03:00:39;;;;;;;;;;;2.40;99.90;;;;;;5094201;28;19923;-56
2021/12/25 03:03:07;;;;;;;;;;;2.40;99.90;;;;;;5094447;28;19924;-55
2021/12/25 03:05:35;;;;;;;;;;;2.30;99.90;;;;;;5093948;28;19924;-57
2021/12/25 03:08:05;;;;;;;;;;;2.30;99.90;;;;;;5094077;28;19950;-58
2021/12/25 03:10:41;;;;;;;;;;;2.30;99.90;;;;;;5094561;28;20272;-55
2021/12/25 03:15:46;;;;;;;;;;;2.30;99.90;;;;;;5093921;28;19973;-56
2021/12/25 03:18:14;;;;;;;;;;;2.30;99.90;;;;;;5094550;28;19926;-54
2021/12/25 03:20:44;;;;;;;;;;;2.30;99.90;;;;;;5094253;28;19919;-54
2021/12/25 03:23:16;;;;;;;;;;;2.30;99.90;;;;;;5094247;28;20376;-56
2021/12/25 03:25:43;;;;;;;;;;;2.30;99.90;;;;;;5111994;28;20436;-55
2021/12/25 03:28:10;;;;;;;;;;;2.30;99.90;;;;;;5094022;28;19919;-55
2021/12/25 03:30:39;;;;;;;;;;;2.30;99.90;;;;;;5094051;28;19927;-54
2021/12/25 03:33:07;;;;;;;;;;;2.30;99.90;;;;;;5094264;28;19962;-57
2021/12/25 03:35:34;;;;;;;;;;;2.30;99.90;;;;;;5111799;28;19949;-55
2021/12/25 03:38:02;;;;;;;;;;;2.30;99.90;;;;;;5094269;28;19927;-56
2021/12/25 03:40:29;;;;;;;;;;;2.20;99.90;;;;;;5112330;28;19923;-56
2021/12/25 03:42:56;;;;;;;;;;;2.20;99.90;;;;;;5112330;28;19924;-53
2021/12/25 03:45:23;;;;;;;;;;;2.30;99.90;;;;;;5097700;28;20321;-56
2021/12/25 03:48:02;;;;;;;;;;;2.30;99.90;;;;;;5098221;28;19945;-55
2021/12/25 03:59:00;;;;;;;;;;;2.20;99.90;;;;;;5116269;28;20007;-53
2021/12/25 04:01:44;;;;;;;;;;;2.20;99.90;;;;;;5098002;28;20018;-56
2021/12/25 04:06:51;;;;;;;;;;;2.20;99.90;;;;;;5097341;28;20387;-56
2021/12/25 04:09:29;;;;;;;;;;;2.20;99.90;;;;;;5116143;28;20334;-55
2021/12/25 04:12:00;;;;;;;;;;;2.20;99.90;;;;;;5097609;28;19946;-56
2021/12/25 04:14:30;;;;;;;;;;;2.20;99.90;;;;;;5097474;28;20014;-54
2021/12/25 04:16:56;;;;;;;;;;;2.20;99.90;;;;;;5109933;22;19926;-56
2021/12/25 04:19:23;;;;;;;;;;;2.30;99.90;;;;;;5115221;28;20298;-55
2021/12/25 04:24:28;;;;;;;;;;;2.40;99.90;;;;;;5114529;28;20041;-56
2021/12/25 04:26:55;;;;;;;;;;;2.30;99.90;;;;;;5113764;28;20018;-54
2021/12/25 05:02:03;;;;;;;;;;;2.20;99.90;;;;;;5096752;28;19920;-55
2021/12/25 05:04:54;;;;;;;;;;;2.20;99.90;;;;;;5115105;28;19926;-55
2021/12/25 05:07:28;;;;;;;;;;;2.20;99.90;;;;;;5096231;28;19924;-56
2021/12/25 05:09:57;;;;;;;;;;;2.20;99.90;;;;;;5096642;28;19923;-56
2021/12/25 05:12:24;;;;;;;;;;;2.20;99.90;;;;;;5096341;28;19949;-54
2021/12/25 05:14:50;;;;;;;;;;;2.20;99.90;;;;;;5096318;28;19924;-55
2021/12/25 05:17:18;;;;;;;;;;;2.30;99.90;;;;;;5095850;28;19923;-55
2021/12/25 05:19:45;;;;;;;;;;;2.20;99.90;;;;;;5096426;28;19923;-55
2021/12/25 05:22:15;;;;;;;;;;;2.10;99.90;;;;;;5096225;28;20050;-55
2021/12/25 05:24:42;;;;;;;;;;;2.10;99.90;;;;;;5096361;28;19923;-54
2021/12/25 05:27:09;;;;;;;;;;;2.00;99.90;;;;;;5112761;28;19926;-55
2021/12/25 05:29:37;;;;;;;;;;;2.00;99.90;;;;;;5095941;28;19919;-56
2021/12/25 05:32:07;;;;;;;;;;;2.00;99.90;;;;;;5096266;28;19956;-57
2021/12/25 05:34:52;;;;;;;;;;;2.00;99.90;;;;;;5114876;28;19930;-56
2021/12/25 05:37:29;;;;;;;;;;;2.00;99.90;;;;;;5112424;28;20513;-57
2021/12/25 05:40:01;;;;;;;;;;;2.00;99.90;;;;;;5114649;28;19919;-58
2021/12/25 05:42:31;;;;;;;;;;;2.00;99.90;;;;;;5095713;28;19927;-58
2021/12/25 05:44:59;;;;;;;;;;;2.00;99.90;;;;;;5096118;28;19984;-56
2021/12/25 05:47:33;;;;;;;;;;;2.00;99.90;;;;;;5095540;28;19929;-58
2021/12/25 05:50:20;;;;;;;;;;;2.00;99.90;;;;;;5113763;28;19989;-56
2021/12/25 05:53:19;;;;;;;;;;;2.10;99.90;;;;;;5079319;28;19927;-54
2021/12/25 05:56:09;;;;;;;;;;;2.10;99.90;;;;;;5104879;28;19939;-58
2021/12/25 05:58:55;;;;;;;;;;;2.10;99.90;;;;;;5113962;28;19973;-54
2021/12/25 06:01:51;;;;;;;;;;;2.10;99.90;;;;;;5095753;28;19949;-55
2021/12/25 06:04:22;;;;;;;;;;;2.00;99.90;;;;;;5112706;28;19931;-56
2021/12/25 06:06:48;;;;;;;;;;;2.00;99.90;;;;;;5112135;28;19920;-56
2021/12/25 06:09:15;;;;;;;;;;;2.00;99.90;;;;;;5113611;28;19924;-56
2021/12/25 06:11:43;;;;;;;;;;;2.00;99.90;;;;;;5113585;28;20395;-55
2021/12/25 06:14:17;;;;;;;;;;;2.00;99.90;;;;;;5095209;28;19926;-54
2021/12/25 06:16:56;;;;;;;;;;;2.10;99.90;;;;;;5094501;28;20014;-55
2021/12/25 06:19:36;;;;;;;;;;;2.10;99.90;;;;;;5095232;28;19949;-56
2021/12/25 06:22:21;;;;;;;;;;;2.10;99.90;;;;;;5095100;28;20379;-56
2021/12/25 06:24:58;;;;;;;;;;;2.10;99.90;;;;;;5095094;28;19924;-56
2021/12/25 06:27:47;;;;;;;;;;;2.20;99.90;;;;;;5111992;28;19927;-55
2021/12/25 06:30:27;;;;;;;;;;;2.10;99.90;;;;;;5095073;28;19926;-58
2021/12/25 06:33:03;;;;;;;;;;;2.20;99.90;;;;;;5094787;28;19976;-58
2021/12/25 06:35:51;;;;;;;;;;;2.20;99.90;;;;;;5112536;28;19920;-56
2021/12/25 06:38:24;;;;;;;;;;;2.20;99.90;;;;;;5094728;28;19920;-55
2021/12/25 06:41:03;;;;;;;;;;;2.20;99.90;;;;;;5094664;28;20303;-58
2021/12/25 06:43:30;;;;;;;;;;;2.20;99.90;;;;;;5111775;28;19920;-54
2021/12/25 06:45:57;;;;;;;;;;;2.10;99.90;;;;;;5094272;28;19955;-54
2021/12/25 06:48:26;;;;;;;;;;;2.10;99.90;;;;;;5094396;28;19927;-55
2021/12/25 06:51:11;;;;;;;;;;;2.20;99.90;;;;;;5113321;28;20006;-57
2021/12/25 06:54:05;;;;;;;;;;;2.20;99.90;;;;;;5109798;28;19927;-58
2021/12/25 06:56:40;;;;;;;;;;;2.20;99.90;;;;;;5110879;28;20014;-56
2021/12/25 06:59:15;;;;;;;;;;;2.20;99.90;;;;;;5094489;28;19923;-58
2021/12/25 07:01:44;;;;;;;;;;;2.20;99.90;;;;;;5094468;28;19920;-56
2021/12/25 07:04:31;;;;;;;;;;;2.20;99.90;;;;;;5112500;28;19926;-58
2021/12/25 07:07:30;;;;;;;;;;;2.20;99.90;;;;;;5077935;28;20015;-56
2021/12/25 07:10:09;;;;;;;;;;;2.20;99.90;;;;;;5094493;28;19920;-55
2021/12/25 07:13:02;;;;;;;;;;;2.20;99.90;;;;;;5108421;28;19953;-58
2021/12/25 07:15:39;;;;;;;;;;;2.20;99.90;;;;;;5093774;28;19934;-57
2021/12/25 07:18:23;;;;;;;;;;;2.20;99.90;;;;;;5093765;28;19923;-58
2021/12/25 07:20:54;;;;;;;;;;;2.20;99.90;;;;;;5094508;28;19920;-58
2021/12/25 07:23:35;;;;;;;;;;;2.20;99.90;;;;;;5110933;28;20500;-57
2021/12/25 07:26:09;;;;;;;;;;;2.20;99.90;;;;;;5093869;28;19951;-58
2021/12/25 07:28:42;;;;;;;;;;;2.20;99.90;;;;;;5094498;28;19973;-58
2021/12/25 07:31:09;;;;;;;;;;;2.10;99.90;;;;;;5112464;28;19927;-57
2021/12/25 07:33:40;;;;;;;;;;;2.00;99.90;;;;;;5112616;28;20572;-56
2021/12/25 07:36:11;;;;;;;;;;;2.00;99.90;;;;;;5111773;28;20379;-56
2021/12/25 07:38:38;;;;;;;;;;;2.00;99.90;;;;;;5112283;28;19919;-56
2021/12/25 07:41:05;;;;;;;;;;;2.10;99.90;;;;;;5112150;28;19920;-57
2021/12/25 07:43:31;;;;;;;;;;;2.20;99.90;;;;;;5112250;28;19920;-57
2021/12/25 07:46:11;;;;;;;;;;;2.30;99.90;;;;;;5093562;28;19920;-55
2021/12/25 07:48:38;;;;;;;;;;;2.40;99.90;;;;;;5112365;28;19920;-56
2021/12/25 07:51:05;;;;;;;;;;;2.40;99.90;;;;;;5112200;28;19927;-55
2021/12/25 07:53:32;;;;;;;;;;;2.50;99.90;;;;;;5112096;28;20344;-55
2021/12/25 07:55:59;;;;;;;;;;;2.50;99.90;;;;;;5111684;28;19971;-56
2021/12/25 07:58:26;;;;;;;;;;;2.60;99.90;;;;;;5112066;28;20022;-58
2021/12/25 08:00:53;;;;;;;;;;;2.60;99.90;;;;;;5111769;28;19923;-58
2021/12/25 08:03:20;;;;;;;;;;;2.60;99.90;;;;;;5111753;28;19927;-58
2021/12/25 08:05:47;;;;;;;;;;;2.60;99.90;;;;;;5111670;28;20018;-58
2021/12/25 08:08:14;;;;;;;;;;;2.60;99.90;;;;;;5112235;28;19927;-58
2021/12/25 08:10:42;;;;;;;;;;;2.70;99.90;;;;;;5112000;28;20391;-57
2021/12/25 08:13:09;;;;;;;;;;;2.70;99.90;;;;;;5111924;28;20429;-58
2021/12/25 08:15:36;;;;;;;;;;;2.70;99.90;;;;;;5111522;28;20394;-58
2021/12/25 08:18:02;;;;;;;;;;;2.70;99.90;;;;;;5111652;28;19967;-58
2021/12/25 08:20:30;;;;;;;;;;;2.60;99.90;;;;;;5111905;28;20349;-58
2021/12/25 08:23:15;;;;;;;;;;;2.60;99.90;;;;;;5111985;28;19926;-57
2021/12/25 08:26:01;;;;;;;;;;;2.60;99.90;;;;;;5111636;28;19926;-57
2021/12/25 08:28:46;;;;;;;;;;;2.60;99.90;;;;;;5112140;28;19926;-58
2021/12/25 08:31:32;;;;;;;;;;;2.70;99.90;;;;;;5114610;28;20020;-58
2021/12/25 08:34:21;;;;;;;;;;;2.80;99.90;;;;;;5115342;28;20458;-58
2021/12/25 08:37:05;;;;;;;;;;;2.90;99.90;;;;;;5096572;28;19926;-57
2021/12/25 08:39:32;;;;;;;;;;;3.10;99.90;;;;;;5115708;28;19965;-58
2021/12/25 08:42:03;;;;;;;;;;;3.10;99.90;;;;;;5115264;28;19949;-58
2021/12/25 08:44:37;;;;;;;;;;;3.20;99.90;;;;;;5115373;28;19919;-57
2021/12/25 08:47:05;;;;;;;;;;;3.30;99.90;;;;;;5114839;28;20006;-57
2021/12/25 08:49:34;;;;;;;;;;;3.20;99.90;;;;;;5115268;28;19919;-58
2021/12/25 08:52:06;;;;;;;;;;;3.10;99.90;;;;;;5115341;28;20287;-58
2021/12/25 08:54:33;;;;;;;;;;;3.20;99.90;;;;;;5114716;28;19924;-58
2021/12/25 08:57:01;;;;;;;;;;;3.30;99.90;;;;;;5114658;28;19926;-57
2021/12/25 08:59:27;;;;;;;;;;;3.40;99.90;;;;;;5115249;28;20406;-57
2021/12/25 09:01:55;;;;;;;;;;;3.70;99.90;;;;;;5114747;28;19919;-57
2021/12/25 09:04:22;;;;;;;;;;;3.70;99.90;;;;;;5114931;28;20287;-57
2021/12/25 09:06:49;;;;;;;;;;;3.70;99.90;;;;;;5114422;28;19920;-58
2021/12/25 09:09:15;;;;;;;;;;;3.60;99.90;;;;;;5114863;28;19946;-58
2021/12/25 09:11:42;;;;;;;;;;;3.80;99.90;;;;;;5114987;28;20425;-58
2021/12/25 09:14:09;;;;;;;;;;;3.80;99.90;;;;;;5114493;28;20391;-58
2021/12/25 09:16:36;;;;;;;;;;;3.90;99.90;;;;;;5114204;28;19919;-58
2021/12/25 09:19:03;;;;;;;;;;;4.00;99.90;;;;;;5114643;28;19930;-58
2021/12/25 09:21:30;;;;;;;;;;;4.00;99.90;;;;;;5114683;28;20435;-58
2021/12/25 09:23:57;;;;;;;;;;;4.00;99.90;;;;;;5114542;28;20429;-59
2021/12/25 09:26:24;;;;;;;;;;;4.10;99.90;;;;;;5114069;28;19920;-58
2021/12/25 09:28:51;;;;;;;;;;;4.10;99.90;;;;;;5114127;28;19929;-59
2021/12/25 09:31:18;;;;;;;;;;;4.10;99.90;;;;;;5114525;28;19919;-58
2021/12/25 09:33:45;;;;;;;;;;;4.30;99.90;;;;;;5114264;28;19927;-58
2021/12/25 09:36:16;;;;;;;;;;;4.00;99.90;;;;;;5113916;28;19969;-58
2021/12/25 09:38:42;;;;;;;;;;;4.00;99.90;;;;;;5113851;28;19920;-58
2021/12/25 09:41:09;;;;;;;;;;;4.00;99.90;;;;;;5114003;28;19920;-58
2021/12/25 09:43:36;;;;;;;;;;;3.80;99.90;;;;;;5114180;28;20022;-57
2021/12/25 09:46:03;;;;;;;;;;;3.70;99.90;;;;;;5113785;28;19920;-58
2021/12/25 09:48:30;;;;;;;;;;;3.70;99.90;;;;;;5114102;28;19919;-58
2021/12/25 09:50:57;;;;;;;;;;;3.70;99.90;;;;;;5113852;28;19919;-57
2021/12/25 09:53:25;;;;;;;;;;;3.80;99.90;;;;;;5113952;28;20018;-57
2021/12/25 09:55:53;;;;;;;;;;;3.90;99.90;;;;;;5113389;28;19920;-58
2021/12/25 09:58:20;;;;;;;;;;;3.90;99.90;;;;;;5113937;28;19924;-58
2021/12/25 10:00:47;;;;;;;;;;;4.00;99.90;;;;;;5113911;28;19919;-57
2021/12/25 10:03:22;;;;;;;;;;;4.00;99.90;;;;;;5113661;28;19969;-57
2021/12/25 10:05:50;;;;;;;;;;;4.20;99.90;;;;;;5113275;28;19919;-58
2021/12/25 10:08:21;;;;;;;;;;;4.30;99.90;;;;;;5113447;28;19926;-57
2021/12/25 10:10:51;;;;;;;;;;;4.30;99.90;;;;;;5113429;28;19924;-58
2021/12/25 10:13:26;;;;;;;;;;;4.50;99.90;;;;;;5113632;28;20376;-59
2021/12/25 10:15:55;;;;;;;;;;;4.60;99.90;;;;;;5113225;28;19920;-58
2021/12/25 10:19:05;;;;;;;;;;;4.70;99.90;;;;;;5128272;22;19920;-56
2021/12/25 10:21:38;;;;;;;;;;;4.80;99.90;;;;;;5113192;28;20016;-57
2021/12/25 10:24:09;;;;;;;;;;;4.90;99.90;;;;;;5113312;28;19988;-54
2021/12/25 10:26:37;;;;;;;;;;;4.90;99.90;;;;;;5111369;28;20016;-54
2021/12/25 10:29:19;;;;;;;;;;;4.80;99.90;;;;;;5092773;28;19969;-53
2021/12/25 10:31:45;;;;;;;;;;;4.90;99.90;;;;;;5086926;28;19924;-55
2021/12/25 10:34:13;;;;;;;;;;;4.90;99.90;;;;;;5074379;28;19964;-55
2021/12/25 10:36:41;;;;;;;;;;;5.00;99.90;;;;;;5071992;28;20433;-56
2021/12/25 10:39:10;;;;;;;;;;;5.20;99.90;;;;;;5072268;28;19967;-53
2021/12/25 10:41:52;;;;;;;;;;;5.40;99.90;;;;;;5072254;28;19970;-54
2021/12/25 10:44:26;;;;;;;;;;;5.50;99.90;;;;;;5072555;28;20404;-54
2021/12/25 10:46:55;;;;;;;;;;;5.70;99.90;;;;;;5071984;28;20342;-53
2021/12/25 10:49:26;;;;;;;;;;;5.70;99.90;;;;;;5072671;28;20015;-55
2021/12/25 10:51:53;;;;;;;;;;;5.50;99.90;;;;;;5072063;28;20387;-54
2021/12/25 10:54:33;;;;;;;;;;;5.40;99.90;;;;;;5071817;28;20011;-52
2021/12/25 10:57:00;;;;;;;;;;;5.40;99.90;;;;;;5071875;28;20289;-55
2021/12/25 10:59:40;;;;;;;;;;;5.50;99.90;;;;;;5080033;28;19920;-55
2021/12/25 11:02:07;;;;;;;;;;;5.60;99.90;;;;;;5090533;28;19928;-55
2021/12/25 11:04:39;;;;;;;;;;;5.50;99.90;;;;;;5092088;28;20407;-54
2021/12/25 11:07:13;;;;;;;;;;;5.50;99.90;;;;;;5073734;28;20296;-53
2021/12/25 11:09:40;;;;;;;;;;;5.40;99.90;;;;;;5092330;28;20041;-56
2021/12/25 11:12:17;;;;;;;;;;;5.60;99.90;;;;;;5092232;28;19927;-55
2021/12/25 11:14:49;;;;;;;;;;;5.70;99.90;;;;;;5092134;28;19920;-55
2021/12/25 11:17:27;;;;;;;;;;;5.90;99.90;;;;;;5091311;28;19932;-52
2021/12/25 11:19:59;;;;;;;;;;;6.00;99.90;;;;;;5092293;28;19970;-56
2021/12/25 11:22:46;;;;;;;;;;;6.10;99.90;;;;;;5092168;28;19920;-56
2021/12/25 11:25:14;;;;;;;;;;;6.20;99.90;;;;;;5091616;28;19981;-54
2021/12/25 11:27:41;;;;;;;;;;;6.30;99.90;;;;;;5091762;28;19923;-56
2021/12/25 11:30:08;;;;;;;;;;;6.30;99.90;;;;;;5092053;28;20015;-55
2021/12/25 11:32:34;;;;;;;;;;;6.30;99.90;;;;;;5092038;28;19965;-56
2021/12/25 11:35:01;;;;;;;;;;;6.20;99.90;;;;;;5091719;28;19920;-56
2021/12/25 11:37:28;;;;;;;;;;;6.10;99.90;;;;;;5091643;28;20319;-56
2021/12/25 11:39:55;;;;;;;;;;;6.00;99.90;;;;;;5091959;28;19955;-54
2021/12/25 11:42:24;;;;;;;;;;;5.80;99.90;;;;;;5091797;28;19923;-54
2021/12/25 11:44:53;;;;;;;;;;;5.50;99.90;;;;;;5091267;28;19963;-55
2021/12/25 11:47:40;;;;;;;;;;;5.40;99.90;;;;;;5091260;28;20283;-55
2021/12/25 11:50:07;;;;;;;;;;;5.40;99.90;;;;;;5088768;28;19959;-54
2021/12/25 11:52:41;;;;;;;;;;;5.40;99.90;;;;;;5091607;28;20446;-56
2021/12/25 11:55:30;;;;;;;;;;;5.50;99.90;;;;;;5091738;28;19967;-55
2021/12/25 12:00:46;;;;;;;;;;;5.70;99.90;;;;;;5092078;28;20334;-56
2021/12/25 12:03:54;;;;;;;;;;;5.60;99.90;;;;;;5091630;28;19919;-56
2021/12/25 12:06:41;;;;;;;;;;;5.60;99.90;;;;;;4991825;28;20437;-54
2021/12/25 12:09:10;;;;;;;;;;;5.70;99.90;;;;;;5077684;28;19920;-56
2021/12/25 12:12:15;;;;;;;;;;;5.60;99.90;;;;;;5094071;28;19927;-56
2021/12/25 12:15:08;;;;;;;;;;;5.60;99.90;;;;;;5094715;28;19950;-56
2021/12/25 12:17:55;;;;;;;;;;;5.60;99.90;;;;;;5093423;28;19927;-55
2021/12/25 12:20:40;;;;;;;;;;;5.50;99.90;;;;;;5077147;28;19920;-56
2021/12/25 12:23:36;;;;;;;;;;;5.50;99.90;;;;;;5095293;28;20404;-55
2021/12/25 12:26:08;;;;;;;;;;;5.50;99.90;;;;;;5094880;28;19920;-57
2021/12/25 12:28:47;;;;;;;;;;;5.60;99.90;;;;;;5095271;28;19947;-55
2021/12/25 12:31:33;;;;;;;;;;;5.60;99.90;;;;;;5095100;28;20291;-57
2021/12/25 12:34:01;;;;;;;;;;;5.80;99.90;;;;;;5095094;28;19973;-55
2021/12/25 12:36:28;;;;;;;;;;;5.90;99.90;;;;;;5094568;28;19946;-56
2021/12/25 12:39:11;;;;;;;;;;;5.90;99.90;;;;;;5094705;28;19966;-54
2021/12/25 12:41:49;;;;;;;;;;;6.00;99.90;;;;;;5094543;28;19920;-56
2021/12/25 12:44:24;;;;;;;;;;;6.00;99.90;;;;;;5094943;28;19920;-57
2021/12/25 12:46:51;;;;;;;;;;;5.90;99.90;;;;;;5093318;28;19973;-56
2021/12/25 12:49:26;;;;;;;;;;;5.90;99.90;;;;;;5094588;28;19966;-54
2021/12/25 12:52:12;;;;;;;;;;;5.90;99.90;;;;;;5094872;28;19977;-55
2021/12/25 12:54:40;;;;;;;;;;;5.90;99.90;;;;;;5094746;28;19927;-56
2021/12/25 12:57:07;;;;;;;;;;;6.00;99.90;;;;;;5094100;28;19920;-56
2021/12/25 12:59:51;;;;;;;;;;;6.00;99.90;;;;;;5094613;28;19920;-55
2021/12/25 13:02:18;;;;;;;;;;;6.00;99.90;;;;;;5094466;28;19983;-54
2021/12/25 13:04:47;;;;;;;;;;;5.90;99.90;;;;;;5094539;28;19920;-56
2021/12/25 13:07:15;;;;;;;;;;;5.90;99.90;;;;;;5094064;28;19920;-56
2021/12/25 13:09:47;;;;;;;;;;;5.60;99.90;;;;;;5094336;28;19924;-55
2021/12/25 13:12:31;;;;;;;;;;;5.60;99.90;;;;;;5094311;28;19920;-54
2021/12/25 13:15:04;;;;;;;;;;;5.60;99.90;;;;;;5094343;28;19977;-54
2021/12/25 13:17:31;;;;;;;;;;;5.40;99.90;;;;;;5093390;28;19952;-56
2021/12/25 13:19:57;;;;;;;;;;;5.30;99.90;;;;;;5093988;28;20414;-56
2021/12/25 13:22:24;;;;;;;;;;;5.40;99.90;;;;;;5094271;28;20338;-55
2021/12/25 13:24:55;;;;;;;;;;;5.50;99.90;;;;;;5093934;28;19924;-55
2021/12/25 13:27:22;;;;;;;;;;;5.40;99.90;;;;;;5093700;28;19927;-56
2021/12/25 13:29:49;;;;;;;;;;;5.50;99.90;;;;;;5094112;28;19927;-56
2021/12/25 13:32:23;;;;;;;;;;;5.70;99.90;;;;;;5093789;28;19929;-56
2021/12/25 13:34:50;;;;;;;;;;;5.70;99.90;;;;;;5093877;28;20360;-53
2021/12/25 13:37:18;;;;;;;;;;;5.60;99.90;;;;;;5093756;28;19920;-52
2021/12/25 13:39:45;;;;;;;;;;;5.70;99.90;;;;;;5092850;28;20396;-56
2021/12/25 13:42:13;;;;;;;;;;;5.80;99.90;;;;;;5092835;28;20342;-56
2021/12/25 13:44:42;;;;;;;;;;;5.90;99.90;;;;;;5093083;28;19962;-54
2021/12/25 13:47:15;;;;;;;;;;;5.80;99.90;;;;;;5092418;28;19959;-56
2021/12/25 13:49:46;;;;;;;;;;;5.60;99.90;;;;;;5093321;28;19949;-54
2021/12/25 13:52:21;;;;;;;;;;;5.70;99.90;;;;;;5090842;28;19920;-55
2021/12/25 13:54:49;;;;;;;;;;;5.80;99.90;;;;;;5093202;28;19954;-55
2021/12/25 13:57:17;;;;;;;;;;;5.70;99.90;;;;;;5092727;28;20331;-53
2021/12/25 13:59:55;;;;;;;;;;;5.70;99.90;;;;;;5092745;28;20006;-55
2021/12/25 14:02:22;;;;;;;;;;;5.70;99.90;;;;;;5091710;28;20457;-56
2021/12/25 14:04:51;;;;;;;;;;;5.60;99.90;;;;;;5092869;28;19927;-55
2021/12/25 14:07:19;;;;;;;;;;;5.70;99.90;;;;;;5092454;28;19924;-56
2021/12/25 14:10:06;;;;;;;;;;;5.70;99.90;;;;;;5092901;28;19927;-56
2021/12/25 14:12:34;;;;;;;;;;;5.70;99.90;;;;;;5093115;28;20504;-55
2021/12/25 14:15:01;;;;;;;;;;;5.70;99.90;;;;;;5092582;28;19920;-57
2021/12/25 14:17:28;;;;;;;;;;;5.70;99.90;;;;;;5092146;28;20372;-57
2021/12/25 14:20:05;;;;;;;;;;;5.70;99.90;;;;;;5092875;28;19919;-56
2021/12/25 14:22:32;;;;;;;;;;;5.80;99.90;;;;;;5092149;28;20383;-53
2021/12/25 14:24:58;;;;;;;;;;;5.70;99.90;;;;;;5092264;28;19954;-55
2021/12/25 14:27:25;;;;;;;;;;;5.70;99.90;;;;;;5091766;28;19973;-56
2021/12/25 14:30:02;;;;;;;;;;;5.60;99.90;;;;;;5092239;28;19930;-56
2021/12/25 14:32:30;;;;;;;;;;;5.70;99.90;;;;;;5092643;28;19924;-56
2021/12/25 14:34:58;;;;;;;;;;;5.60;99.90;;;;;;5092520;28;19919;-56
2021/12/25 14:37:35;;;;;;;;;;;5.70;99.90;;;;;;5092416;28;19956;-57
2021/12/25 14:40:07;;;;;;;;;;;5.70;99.90;;;;;;5092728;28;19923;-53
2021/12/25 14:42:36;;;;;;;;;;;5.60;99.90;;;;;;5092562;28;19927;-56
2021/12/25 14:45:03;;;;;;;;;;;5.60;99.90;;;;;;5082121;28;19920;-56
2021/12/25 14:47:29;;;;;;;;;;;5.50;99.90;;;;;;5091620;28;19920;-55
2021/12/25 14:49:56;;;;;;;;;;;5.40;99.90;;;;;;5088799;28;19927;-55
2021/12/25 14:52:23;;;;;;;;;;;5.40;99.90;;;;;;5091005;28;20372;-54
2021/12/25 14:54:50;;;;;;;;;;;5.30;99.90;;;;;;5090530;28;19965;-55
2021/12/25 14:57:21;;;;;;;;;;;5.30;99.90;;;;;;5087354;28;20035;-56
2021/12/25 14:59:48;;;;;;;;;;;5.20;99.90;;;;;;5088784;28;19924;-56
2021/12/25 15:02:19;;;;;;;;;;;5.20;99.90;;;;;;5091573;28;19924;-56
2021/12/25 15:04:47;;;;;;;;;;;5.10;99.90;;;;;;5091917;28;19927;-55
2021/12/25 15:07:14;;;;;;;;;;;5.10;99.90;;;;;;5083569;28;19931;-54
2021/12/25 15:09:43;;;;;;;;;;;5.10;99.90;;;;;;5092145;28;20322;-56
2021/12/25 15:12:12;;;;;;;;;;;5.10;99.90;;;;;;5083105;28;19959;-55
2021/12/25 15:14:41;;;;;;;;;;;5.00;99.90;;;;;;5083464;28;19920;-57
2021/12/25 15:17:13;;;;;;;;;;;4.90;99.90;;;;;;5091625;28;19959;-55
2021/12/25 15:19:56;;;;;;;;;;;4.90;99.90;;;;;;5091982;28;19920;-56
2021/12/25 15:22:23;;;;;;;;;;;4.90;99.90;;;;;;5092154;28;19919;-56
2021/12/25 15:25:00;;;;;;;;;;;4.80;99.90;;;;;;5091976;28;19965;-56
2021/12/25 15:27:28;;;;;;;;;;;4.80;99.90;;;;;;5091353;28;19950;-55
2021/12/25 15:29:57;;;;;;;;;;;4.80;99.90;;;;;;5091718;28;19969;-55
2021/12/25 15:32:32;;;;;;;;;;;4.80;99.90;;;;;;5091823;28;19923;-55
2021/12/25 15:35:01;;;;;;;;;;;4.70;99.90;;;;;;5091932;28;19973;-55
2021/12/25 15:37:30;;;;;;;;;;;4.60;99.90;;;;;;5091238;28;19924;-56
2021/12/25 15:39:58;;;;;;;;;;;4.60;99.90;;;;;;5093657;28;19953;-52
2021/12/25 15:42:28;;;;;;;;;;;4.60;99.90;;;;;;5096161;28;20409;-56
2021/12/25 15:44:55;;;;;;;;;;;4.50;99.90;;;;;;5095856;28;19965;-54
2021/12/25 15:47:22;;;;;;;;;;;4.50;99.90;;;;;;5094181;28;19920;-55
2021/12/25 15:49:50;;;;;;;;;;;4.50;99.90;;;;;;5086714;28;19920;-57
2021/12/25 15:52:18;;;;;;;;;;;4.50;99.90;;;;;;5083279;28;19924;-55
2021/12/25 15:54:45;;;;;;;;;;;4.50;99.90;;;;;;5075661;28;20285;-57
2021/12/25 15:57:12;;;;;;;;;;;4.50;99.90;;;;;;5074939;28;19920;-55
2021/12/25 15:59:39;;;;;;;;;;;4.40;99.90;;;;;;5075342;28;19966;-56
2021/12/25 16:02:08;;;;;;;;;;;4.40;99.90;;;;;;5075080;28;20349;-55
2021/12/25 16:04:36;;;;;;;;;;;4.40;99.90;;;;;;5075200;28;19947;-54
2021/12/25 16:07:04;;;;;;;;;;;4.40;99.90;;;;;;5074783;28;19947;-56
2021/12/25 16:09:30;;;;;;;;;;;4.30;99.90;;;;;;5075030;28;19929;-55
2021/12/25 16:11:58;;;;;;;;;;;4.30;99.90;;;;;;5081941;28;19924;-56
2021/12/25 16:14:25;;;;;;;;;;;4.30;99.90;;;;;;5094602;28;20413;-56
2021/12/25 16:19:49;;;;;;;;;;;4.30;99.90;;;;;;5071708;28;19935;-57